sensor_id;sensor_type;location;lat;lon;timestamp;P1;durP1;ratioP1;P2;durP2;ratioP2
76955;SDS011;65894;53.206;-6.108;2022-12-18T00:01:19;7.68;;;4.10;;
76955;SDS011;65894;53.206;-6.108;2022-12-18T00:03:58;8.40;;;3.90;;
76955;SDS011;65894;53.206;-6.108;2022-12-18T00:06:25;7.75;;;3.80;;
76955;SDS011;65894;53.206;-6.108;2022-12-18T00:08:52;7.93;;;3.92;;
76955;SDS011;65894;53.206;-6.108;2022-12-18T00:11:20;6.18;;;3.35;;
76955;SDS011;65894;53.206;-6.108;2022-12-18T00:13:47;8.00;;;3.75;;
76955;SDS011;65894;53.206;-6.108;2022-12-18T00:16:15;7.00;;;3.55;;
76955;SDS011;65894;53.206;-6.108;2022-12-18T00:18:44;7.13;;;3.45;;
76955;SDS011;65894;53.206;-6.108;2022-12-18T00:21:11;7.32;;;3.80;;
76955;SDS011;65894;53.206;-6.108;2022-12-18T00:23:37;6.93;;;3.45;;
76955;SDS011;65894;53.206;-6.108;2022-12-18T00:26:05;7.82;;;3.88;;
76955;SDS011;65894;53.206;-6.108;2022-12-18T00:28:33;8.18;;;3.63;;
76955;SDS011;65894;53.206;-6.108;2022-12-18T00:31:00;7.72;;;3.60;;
76955;SDS011;65894;53.206;-6.108;2022-12-18T00:33:29;6.90;;;3.70;;
76955;SDS011;65894;53.206;-6.108;2022-12-18T00:35:59;6.53;;;3.28;;
76955;SDS011;65894;53.206;-6.108;2022-12-18T00:38:27;8.18;;;3.63;;
76955;SDS011;65894;53.206;-6.108;2022-12-18T00:40:52;7.22;;;3.25;;
76955;SDS011;65894;53.206;-6.108;2022-12-18T00:43:18;7.60;;;3.45;;
76955;SDS011;65894;53.206;-6.108;2022-12-18T00:45:43;8.82;;;3.45;;
76955;SDS011;65894;53.206;-6.108;2022-12-18T00:48:09;7.60;;;3.00;;
76955;SDS011;65894;53.206;-6.108;2022-12-18T00:50:34;7.32;;;3.13;;
76955;SDS011;65894;53.206;-6.108;2022-12-18T00:53:00;8.00;;;3.13;;
76955;SDS011;65894;53.206;-6.108;2022-12-18T00:55:25;8.65;;;3.47;;
76955;SDS011;65894;53.206;-6.108;2022-12-18T00:57:51;7.90;;;3.20;;
76955;SDS011;65894;53.206;-6.108;2022-12-18T01:00:17;8.75;;;3.38;;
76955;SDS011;65894;53.206;-6.108;2022-12-18T01:02:43;7.40;;;3.35;;
76955;SDS011;65894;53.206;-6.108;2022-12-18T01:05:09;7.30;;;3.05;;
76955;SDS011;65894;53.206;-6.108;2022-12-18T01:07:37;7.57;;;3.15;;
76955;SDS011;65894;53.206;-6.108;2022-12-18T01:10:03;7.50;;;2.95;;
76955;SDS011;65894;53.206;-6.108;2022-12-18T01:12:30;10.10;;;3.00;;
76955;SDS011;65894;53.206;-6.108;2022-12-18T01:14:56;8.32;;;2.97;;
76955;SDS011;65894;53.206;-6.108;2022-12-18T01:17:21;6.80;;;2.88;;
76955;SDS011;65894;53.206;-6.108;2022-12-18T01:19:47;6.35;;;3.13;;
76955;SDS011;65894;53.206;-6.108;2022-12-18T01:22:12;5.90;;;2.53;;
76955;SDS011;65894;53.206;-6.108;2022-12-18T01:24:38;6.47;;;2.38;;
76955;SDS011;65894;53.206;-6.108;2022-12-18T01:27:04;6.25;;;2.67;;
76955;SDS011;65894;53.206;-6.108;2022-12-18T01:29:29;6.05;;;2.25;;
76955;SDS011;65894;53.206;-6.108;2022-12-18T01:31:55;6.35;;;2.60;;
76955;SDS011;65894;53.206;-6.108;2022-12-18T01:34:21;7.72;;;2.55;;
76955;SDS011;65894;53.206;-6.108;2022-12-18T01:36:47;5.47;;;2.38;;
76955;SDS011;65894;53.206;-6.108;2022-12-18T01:39:13;6.07;;;2.47;;
76955;SDS011;65894;53.206;-6.108;2022-12-18T01:41:40;6.15;;;2.67;;
76955;SDS011;65894;53.206;-6.108;2022-12-18T01:47:17;5.68;;;2.35;;
76955;SDS011;65894;53.206;-6.108;2022-12-18T01:49:59;5.53;;;2.15;;
76955;SDS011;65894;53.206;-6.108;2022-12-18T01:52:30;5.75;;;1.92;;
76955;SDS011;65894;53.206;-6.108;2022-12-18T01:54:57;5.15;;;2.13;;
76955;SDS011;65894;53.206;-6.108;2022-12-18T01:57:25;4.95;;;2.35;;
76955;SDS011;65894;53.206;-6.108;2022-12-18T01:59:52;5.65;;;2.10;;
76955;SDS011;65894;53.206;-6.108;2022-12-18T02:02:21;4.50;;;1.95;;
76955;SDS011;65894;53.206;-6.108;2022-12-18T02:04:47;4.25;;;1.75;;
76955;SDS011;65894;53.206;-6.108;2022-12-18T02:10:03;4.93;;;1.95;;
76955;SDS011;65894;53.206;-6.108;2022-12-18T02:12:53;4.50;;;1.60;;
76955;SDS011;65894;53.206;-6.108;2022-12-18T02:18:05;5.18;;;1.90;;
76955;SDS011;65894;53.206;-6.108;2022-12-18T02:20:36;4.15;;;1.50;;
76955;SDS011;65894;53.206;-6.108;2022-12-18T02:26:26;4.35;;;1.77;;
76955;SDS011;65894;53.206;-6.108;2022-12-18T02:29:01;4.65;;;1.77;;
76955;SDS011;65894;53.206;-6.108;2022-12-18T02:31:31;4.30;;;1.80;;
76955;SDS011;65894;53.206;-6.108;2022-12-18T02:34:03;4.80;;;1.77;;
76955;SDS011;65894;53.206;-6.108;2022-12-18T02:36:36;4.60;;;1.75;;
76955;SDS011;65894;53.206;-6.108;2022-12-18T02:39:05;3.72;;;1.80;;
76955;SDS011;65894;53.206;-6.108;2022-12-18T02:41:34;4.13;;;1.55;;
76955;SDS011;65894;53.206;-6.108;2022-12-18T02:44:06;5.03;;;1.75;;
76955;SDS011;65894;53.206;-6.108;2022-12-18T02:46:53;4.40;;;1.58;;
76955;SDS011;65894;53.206;-6.108;2022-12-18T02:57:42;4.53;;;1.45;;
76955;SDS011;65894;53.206;-6.108;2022-12-18T03:02:50;4.40;;;1.50;;
76955;SDS011;65894;53.206;-6.108;2022-12-18T03:05:20;4.90;;;1.63;;
76955;SDS011;65894;53.206;-6.108;2022-12-18T03:07:55;4.65;;;1.38;;
76955;SDS011;65894;53.206;-6.108;2022-12-18T03:10:28;4.28;;;1.73;;
76955;SDS011;65894;53.206;-6.108;2022-12-18T03:13:02;4.60;;;1.52;;
76955;SDS011;65894;53.206;-6.108;2022-12-18T03:15:35;3.80;;;1.58;;
76955;SDS011;65894;53.206;-6.108;2022-12-18T03:21:04;4.57;;;1.52;;
76955;SDS011;65894;53.206;-6.108;2022-12-18T03:23:39;3.50;;;1.35;;
76955;SDS011;65894;53.206;-6.108;2022-12-18T03:26:10;5.82;;;1.45;;
76955;SDS011;65894;53.206;-6.108;2022-12-18T03:28:46;3.00;;;1.30;;
76955;SDS011;65894;53.206;-6.108;2022-12-18T03:31:15;3.88;;;1.35;;
76955;SDS011;65894;53.206;-6.108;2022-12-18T03:33:47;4.30;;;1.48;;
76955;SDS011;65894;53.206;-6.108;2022-12-18T03:36:17;3.97;;;1.33;;
76955;SDS011;65894;53.206;-6.108;2022-12-18T03:38:43;4.10;;;1.17;;
76955;SDS011;65894;53.206;-6.108;2022-12-18T03:44:41;3.03;;;1.27;;
76955;SDS011;65894;53.206;-6.108;2022-12-18T03:50:11;2.80;;;1.20;;
76955;SDS011;65894;53.206;-6.108;2022-12-18T03:55:33;3.92;;;1.20;;
76955;SDS011;65894;53.206;-6.108;2022-12-18T03:58:03;2.67;;;1.00;;
76955;SDS011;65894;53.206;-6.108;2022-12-18T04:00:41;3.47;;;1.45;;
76955;SDS011;65894;53.206;-6.108;2022-12-18T04:03:09;2.25;;;1.23;;
76955;SDS011;65894;53.206;-6.108;2022-12-18T04:05:43;3.53;;;1.23;;
76955;SDS011;65894;53.206;-6.108;2022-12-18T04:08:10;5.05;;;1.70;;
76955;SDS011;65894;53.206;-6.108;2022-12-18T04:10:41;3.83;;;1.40;;
76955;SDS011;65894;53.206;-6.108;2022-12-18T04:13:07;2.95;;;1.20;;
76955;SDS011;65894;53.206;-6.108;2022-12-18T04:15:34;4.53;;;1.50;;
76955;SDS011;65894;53.206;-6.108;2022-12-18T04:18:02;3.60;;;1.08;;
76955;SDS011;65894;53.206;-6.108;2022-12-18T04:20:35;4.32;;;1.40;;
76955;SDS011;65894;53.206;-6.108;2022-12-18T04:23:02;4.32;;;1.33;;
76955;SDS011;65894;53.206;-6.108;2022-12-18T04:25:27;3.17;;;1.27;;
76955;SDS011;65894;53.206;-6.108;2022-12-18T04:28:04;3.75;;;1.38;;
76955;SDS011;65894;53.206;-6.108;2022-12-18T04:30:29;3.83;;;1.40;;
76955;SDS011;65894;53.206;-6.108;2022-12-18T04:32:55;4.25;;;1.40;;
76955;SDS011;65894;53.206;-6.108;2022-12-18T04:35:21;3.13;;;1.40;;
76955;SDS011;65894;53.206;-6.108;2022-12-18T04:37:46;4.00;;;1.38;;
76955;SDS011;65894;53.206;-6.108;2022-12-18T04:40:13;3.55;;;1.17;;
76955;SDS011;65894;53.206;-6.108;2022-12-18T04:42:42;3.78;;;1.40;;
76955;SDS011;65894;53.206;-6.108;2022-12-18T04:45:07;3.17;;;1.30;;
76955;SDS011;65894;53.206;-6.108;2022-12-18T04:47:33;3.67;;;1.20;;
76955;SDS011;65894;53.206;-6.108;2022-12-18T04:49:59;4.22;;;1.30;;
76955;SDS011;65894;53.206;-6.108;2022-12-18T04:52:24;3.65;;;1.20;;
76955;SDS011;65894;53.206;-6.108;2022-12-18T04:54:50;3.47;;;1.23;;
76955;SDS011;65894;53.206;-6.108;2022-12-18T04:57:15;3.90;;;1.15;;
76955;SDS011;65894;53.206;-6.108;2022-12-18T04:59:43;3.65;;;1.25;;
76955;SDS011;65894;53.206;-6.108;2022-12-18T05:02:09;4.00;;;1.27;;
76955;SDS011;65894;53.206;-6.108;2022-12-18T05:04:34;3.28;;;1.27;;
76955;SDS011;65894;53.206;-6.108;2022-12-18T05:06:59;3.95;;;1.27;;
76955;SDS011;65894;53.206;-6.108;2022-12-18T05:09:25;4.00;;;1.33;;
76955;SDS011;65894;53.206;-6.108;2022-12-18T05:11:50;4.60;;;1.10;;
76955;SDS011;65894;53.206;-6.108;2022-12-18T05:14:16;2.92;;;1.17;;
76955;SDS011;65894;53.206;-6.108;2022-12-18T05:16:41;4.00;;;1.40;;
76955;SDS011;65894;53.206;-6.108;2022-12-18T05:19:07;2.85;;;1.00;;
76955;SDS011;65894;53.206;-6.108;2022-12-18T05:21:32;3.05;;;1.13;;
76955;SDS011;65894;53.206;-6.108;2022-12-18T05:23:58;3.75;;;1.30;;
76955;SDS011;65894;53.206;-6.108;2022-12-18T05:26:24;2.65;;;1.10;;
76955;SDS011;65894;53.206;-6.108;2022-12-18T05:28:49;3.20;;;1.20;;
76955;SDS011;65894;53.206;-6.108;2022-12-18T05:31:15;5.30;;;1.58;;
76955;SDS011;65894;53.206;-6.108;2022-12-18T05:33:40;3.85;;;1.20;;
76955;SDS011;65894;53.206;-6.108;2022-12-18T05:36:06;3.28;;;1.15;;
76955;SDS011;65894;53.206;-6.108;2022-12-18T05:38:34;3.05;;;1.10;;
76955;SDS011;65894;53.206;-6.108;2022-12-18T05:41:01;3.10;;;1.30;;
76955;SDS011;65894;53.206;-6.108;2022-12-18T05:43:27;4.15;;;1.20;;
76955;SDS011;65894;53.206;-6.108;2022-12-18T05:45:53;4.30;;;1.00;;
76955;SDS011;65894;53.206;-6.108;2022-12-18T05:48:20;4.13;;;1.10;;
76955;SDS011;65894;53.206;-6.108;2022-12-18T05:50:47;2.65;;;0.95;;
76955;SDS011;65894;53.206;-6.108;2022-12-18T05:53:14;4.40;;;1.33;;
76955;SDS011;65894;53.206;-6.108;2022-12-18T05:55:40;3.42;;;1.05;;
76955;SDS011;65894;53.206;-6.108;2022-12-18T05:58:07;4.05;;;1.45;;
76955;SDS011;65894;53.206;-6.108;2022-12-18T06:00:36;2.58;;;1.00;;
76955;SDS011;65894;53.206;-6.108;2022-12-18T06:03:05;2.63;;;1.10;;
76955;SDS011;65894;53.206;-6.108;2022-12-18T06:05:34;3.75;;;1.00;;
76955;SDS011;65894;53.206;-6.108;2022-12-18T06:08:02;3.75;;;1.27;;
76955;SDS011;65894;53.206;-6.108;2022-12-18T06:10:27;4.25;;;1.35;;
76955;SDS011;65894;53.206;-6.108;2022-12-18T06:12:53;3.03;;;1.10;;
76955;SDS011;65894;53.206;-6.108;2022-12-18T06:15:19;4.35;;;1.35;;
76955;SDS011;65894;53.206;-6.108;2022-12-18T06:17:44;3.13;;;1.20;;
76955;SDS011;65894;53.206;-6.108;2022-12-18T06:20:10;3.38;;;1.08;;
76955;SDS011;65894;53.206;-6.108;2022-12-18T06:22:35;3.97;;;1.33;;
76955;SDS011;65894;53.206;-6.108;2022-12-18T06:25:01;3.10;;;1.13;;
76955;SDS011;65894;53.206;-6.108;2022-12-18T06:27:26;3.60;;;1.10;;
76955;SDS011;65894;53.206;-6.108;2022-12-18T06:29:52;2.85;;;1.00;;
76955;SDS011;65894;53.206;-6.108;2022-12-18T06:32:17;4.93;;;1.20;;
76955;SDS011;65894;53.206;-6.108;2022-12-18T06:34:43;3.55;;;1.20;;
76955;SDS011;65894;53.206;-6.108;2022-12-18T06:37:08;2.72;;;1.00;;
76955;SDS011;65894;53.206;-6.108;2022-12-18T06:39:34;2.67;;;1.00;;
76955;SDS011;65894;53.206;-6.108;2022-12-18T06:41:59;3.65;;;1.10;;
76955;SDS011;65894;53.206;-6.108;2022-12-18T06:44:24;4.10;;;1.08;;
76955;SDS011;65894;53.206;-6.108;2022-12-18T06:46:50;3.00;;;1.08;;
76955;SDS011;65894;53.206;-6.108;2022-12-18T06:49:15;3.38;;;1.00;;
76955;SDS011;65894;53.206;-6.108;2022-12-18T06:51:41;3.58;;;1.25;;
76955;SDS011;65894;53.206;-6.108;2022-12-18T06:54:07;3.83;;;1.10;;
76955;SDS011;65894;53.206;-6.108;2022-12-18T06:56:33;2.92;;;0.98;;
76955;SDS011;65894;53.206;-6.108;2022-12-18T06:58:59;3.95;;;1.10;;
76955;SDS011;65894;53.206;-6.108;2022-12-18T07:01:24;2.63;;;0.85;;
76955;SDS011;65894;53.206;-6.108;2022-12-18T07:03:53;3.70;;;1.13;;
76955;SDS011;65894;53.206;-6.108;2022-12-18T07:06:20;6.10;;;1.10;;
76955;SDS011;65894;53.206;-6.108;2022-12-18T07:08:48;2.92;;;1.02;;
76955;SDS011;65894;53.206;-6.108;2022-12-18T07:11:15;2.30;;;1.00;;
76955;SDS011;65894;53.206;-6.108;2022-12-18T07:13:42;2.28;;;0.93;;
76955;SDS011;65894;53.206;-6.108;2022-12-18T07:16:09;2.20;;;0.70;;
76955;SDS011;65894;53.206;-6.108;2022-12-18T07:18:36;2.53;;;0.85;;
76955;SDS011;65894;53.206;-6.108;2022-12-18T07:21:05;2.92;;;0.90;;
76955;SDS011;65894;53.206;-6.108;2022-12-18T07:23:32;3.10;;;1.05;;
76955;SDS011;65894;53.206;-6.108;2022-12-18T07:26:06;2.75;;;0.93;;
76955;SDS011;65894;53.206;-6.108;2022-12-18T07:28:34;4.35;;;1.15;;
76955;SDS011;65894;53.206;-6.108;2022-12-18T07:31:03;2.45;;;0.82;;
76955;SDS011;65894;53.206;-6.108;2022-12-18T07:33:33;3.90;;;0.98;;
76955;SDS011;65894;53.206;-6.108;2022-12-18T07:36:02;2.72;;;0.80;;
76955;SDS011;65894;53.206;-6.108;2022-12-18T07:38:30;2.40;;;1.10;;
76955;SDS011;65894;53.206;-6.108;2022-12-18T07:43:51;2.45;;;0.90;;
76955;SDS011;65894;53.206;-6.108;2022-12-18T07:46:17;3.67;;;1.10;;
76955;SDS011;65894;53.206;-6.108;2022-12-18T07:48:43;2.65;;;1.00;;
76955;SDS011;65894;53.206;-6.108;2022-12-18T07:51:12;4.68;;;1.20;;
76955;SDS011;65894;53.206;-6.108;2022-12-18T07:53:38;3.65;;;1.15;;
76955;SDS011;65894;53.206;-6.108;2022-12-18T07:56:04;2.08;;;1.00;;
76955;SDS011;65894;53.206;-6.108;2022-12-18T07:58:32;4.35;;;0.90;;
76955;SDS011;65894;53.206;-6.108;2022-12-18T08:01:19;4.57;;;1.10;;
76955;SDS011;65894;53.206;-6.108;2022-12-18T08:03:43;4.03;;;1.20;;
76955;SDS011;65894;53.206;-6.108;2022-12-18T08:06:09;3.58;;;1.00;;
76955;SDS011;65894;53.206;-6.108;2022-12-18T08:08:35;3.17;;;1.15;;
76955;SDS011;65894;53.206;-6.108;2022-12-18T08:11:01;2.65;;;1.00;;
76955;SDS011;65894;53.206;-6.108;2022-12-18T08:13:27;2.88;;;1.00;;
76955;SDS011;65894;53.206;-6.108;2022-12-18T08:15:57;3.58;;;1.00;;
76955;SDS011;65894;53.206;-6.108;2022-12-18T08:18:23;2.10;;;1.10;;
76955;SDS011;65894;53.206;-6.108;2022-12-18T08:20:48;2.88;;;0.93;;
76955;SDS011;65894;53.206;-6.108;2022-12-18T08:23:14;2.25;;;0.98;;
76955;SDS011;65894;53.206;-6.108;2022-12-18T08:25:39;3.55;;;1.05;;
76955;SDS011;65894;53.206;-6.108;2022-12-18T08:28:05;2.30;;;0.80;;
76955;SDS011;65894;53.206;-6.108;2022-12-18T08:30:30;3.08;;;1.08;;
76955;SDS011;65894;53.206;-6.108;2022-12-18T08:32:56;2.55;;;1.05;;
76955;SDS011;65894;53.206;-6.108;2022-12-18T08:35:21;2.53;;;1.15;;
76955;SDS011;65894;53.206;-6.108;2022-12-18T08:37:47;3.08;;;0.82;;
76955;SDS011;65894;53.206;-6.108;2022-12-18T08:40:12;2.88;;;1.13;;
76955;SDS011;65894;53.206;-6.108;2022-12-18T08:42:38;2.75;;;1.33;;
76955;SDS011;65894;53.206;-6.108;2022-12-18T08:45:22;3.60;;;0.95;;
76955;SDS011;65894;53.206;-6.108;2022-12-18T08:47:48;2.60;;;1.08;;
76955;SDS011;65894;53.206;-6.108;2022-12-18T08:50:14;2.97;;;1.00;;
76955;SDS011;65894;53.206;-6.108;2022-12-18T08:52:39;2.03;;;0.90;;
76955;SDS011;65894;53.206;-6.108;2022-12-18T08:55:05;2.60;;;1.10;;
76955;SDS011;65894;53.206;-6.108;2022-12-18T08:57:31;2.80;;;1.10;;
76955;SDS011;65894;53.206;-6.108;2022-12-18T08:59:57;3.22;;;1.20;;
76955;SDS011;65894;53.206;-6.108;2022-12-18T09:02:22;2.50;;;1.00;;
76955;SDS011;65894;53.206;-6.108;2022-12-18T09:04:48;3.17;;;0.95;;
76955;SDS011;65894;53.206;-6.108;2022-12-18T09:07:13;3.28;;;1.00;;
76955;SDS011;65894;53.206;-6.108;2022-12-18T09:09:39;2.97;;;1.40;;
76955;SDS011;65894;53.206;-6.108;2022-12-18T09:12:04;3.78;;;1.08;;
76955;SDS011;65894;53.206;-6.108;2022-12-18T09:14:30;3.00;;;1.02;;
76955;SDS011;65894;53.206;-6.108;2022-12-18T09:16:55;3.53;;;1.05;;
76955;SDS011;65894;53.206;-6.108;2022-12-18T09:19:21;4.38;;;1.20;;
76955;SDS011;65894;53.206;-6.108;2022-12-18T09:21:46;2.33;;;0.90;;
76955;SDS011;65894;53.206;-6.108;2022-12-18T09:24:12;2.50;;;1.00;;
76955;SDS011;65894;53.206;-6.108;2022-12-18T09:26:39;3.70;;;1.20;;
76955;SDS011;65894;53.206;-6.108;2022-12-18T09:29:04;3.53;;;1.27;;
76955;SDS011;65894;53.206;-6.108;2022-12-18T09:31:32;2.97;;;1.10;;
76955;SDS011;65894;53.206;-6.108;2022-12-18T09:33:58;3.85;;;1.20;;
76955;SDS011;65894;53.206;-6.108;2022-12-18T09:36:24;3.50;;;1.02;;
76955;SDS011;65894;53.206;-6.108;2022-12-18T09:38:49;3.22;;;1.10;;
76955;SDS011;65894;53.206;-6.108;2022-12-18T09:43:53;2.88;;;1.02;;
76955;SDS011;65894;53.206;-6.108;2022-12-18T09:46:26;2.92;;;1.20;;
76955;SDS011;65894;53.206;-6.108;2022-12-18T09:48:56;3.50;;;1.23;;
76955;SDS011;65894;53.206;-6.108;2022-12-18T09:51:27;2.50;;;1.00;;
76955;SDS011;65894;53.206;-6.108;2022-12-18T09:53:57;3.35;;;1.30;;
76955;SDS011;65894;53.206;-6.108;2022-12-18T09:56:28;2.72;;;1.00;;
76955;SDS011;65894;53.206;-6.108;2022-12-18T10:01:26;4.45;;;1.17;;
76955;SDS011;65894;53.206;-6.108;2022-12-18T10:03:52;2.40;;;1.05;;
76955;SDS011;65894;53.206;-6.108;2022-12-18T10:06:24;3.22;;;1.05;;
76955;SDS011;65894;53.206;-6.108;2022-12-18T10:26:22;2.65;;;1.00;;
76955;SDS011;65894;53.206;-6.108;2022-12-18T10:28:48;4.25;;;1.10;;
76955;SDS011;65894;53.206;-6.108;2022-12-18T10:31:17;2.88;;;1.17;;
76955;SDS011;65894;53.206;-6.108;2022-12-18T10:33:45;2.80;;;1.02;;
76955;SDS011;65894;53.206;-6.108;2022-12-18T10:36:11;3.75;;;1.13;;
76955;SDS011;65894;53.206;-6.108;2022-12-18T10:38:37;2.60;;;0.90;;
76955;SDS011;65894;53.206;-6.108;2022-12-18T10:41:04;4.28;;;1.00;;
76955;SDS011;65894;53.206;-6.108;2022-12-18T10:43:38;3.72;;;0.95;;
76955;SDS011;65894;53.206;-6.108;2022-12-18T10:48:40;5.97;;;1.10;;
76955;SDS011;65894;53.206;-6.108;2022-12-18T10:51:28;3.15;;;0.90;;
76955;SDS011;65894;53.206;-6.108;2022-12-18T10:54:03;5.93;;;1.50;;
76955;SDS011;65894;53.206;-6.108;2022-12-18T10:56:39;9.80;;;2.00;;
76955;SDS011;65894;53.206;-6.108;2022-12-18T10:59:06;9.30;;;2.65;;
76955;SDS011;65894;53.206;-6.108;2022-12-18T11:04:20;12.52;;;4.40;;
76955;SDS011;65894;53.206;-6.108;2022-12-18T11:07:01;13.13;;;4.55;;
76955;SDS011;65894;53.206;-6.108;2022-12-18T11:09:27;13.82;;;4.18;;
76955;SDS011;65894;53.206;-6.108;2022-12-18T11:12:19;15.45;;;5.32;;
76955;SDS011;65894;53.206;-6.108;2022-12-18T11:14:48;12.93;;;5.05;;
76955;SDS011;65894;53.206;-6.108;2022-12-18T11:17:19;12.82;;;5.45;;
76955;SDS011;65894;53.206;-6.108;2022-12-18T11:19:57;13.95;;;5.78;;
76955;SDS011;65894;53.206;-6.108;2022-12-18T11:22:31;12.20;;;4.80;;
76955;SDS011;65894;53.206;-6.108;2022-12-18T11:25:01;12.52;;;5.50;;
76955;SDS011;65894;53.206;-6.108;2022-12-18T11:27:55;14.55;;;5.65;;
76955;SDS011;65894;53.206;-6.108;2022-12-18T11:38:14;14.27;;;5.25;;
76955;SDS011;65894;53.206;-6.108;2022-12-18T11:40:44;12.30;;;4.90;;
76955;SDS011;65894;53.206;-6.108;2022-12-18T11:43:14;12.50;;;4.60;;
76955;SDS011;65894;53.206;-6.108;2022-12-18T11:45:48;13.10;;;4.57;;
76955;SDS011;65894;53.206;-6.108;2022-12-18T11:48:22;11.93;;;5.07;;
76955;SDS011;65894;53.206;-6.108;2022-12-18T11:50:52;11.95;;;4.40;;
76955;SDS011;65894;53.206;-6.108;2022-12-18T11:53:20;12.20;;;4.45;;
76955;SDS011;65894;53.206;-6.108;2022-12-18T11:58:48;10.68;;;3.70;;
76955;SDS011;65894;53.206;-6.108;2022-12-18T12:28:13;8.20;;;2.63;;
76955;SDS011;65894;53.206;-6.108;2022-12-18T12:38:51;9.00;;;2.83;;
76955;SDS011;65894;53.206;-6.108;2022-12-18T12:41:26;10.77;;;3.17;;
76955;SDS011;65894;53.206;-6.108;2022-12-18T12:47:11;7.32;;;2.60;;
76955;SDS011;65894;53.206;-6.108;2022-12-18T12:49:46;8.48;;;2.55;;
76955;SDS011;65894;53.206;-6.108;2022-12-18T12:54:54;7.45;;;2.83;;
76955;SDS011;65894;53.206;-6.108;2022-12-18T12:57:22;8.20;;;2.30;;
76955;SDS011;65894;53.206;-6.108;2022-12-18T13:00:04;8.27;;;2.30;;
76955;SDS011;65894;53.206;-6.108;2022-12-18T13:02:32;11.52;;;2.47;;
76955;SDS011;65894;53.206;-6.108;2022-12-18T13:05:08;10.77;;;2.15;;
76955;SDS011;65894;53.206;-6.108;2022-12-18T13:07:54;7.32;;;2.03;;
76955;SDS011;65894;53.206;-6.108;2022-12-18T13:10:45;8.60;;;2.13;;
76955;SDS011;65894;53.206;-6.108;2022-12-18T13:21:01;6.32;;;1.92;;
76955;SDS011;65894;53.206;-6.108;2022-12-18T13:23:31;8.38;;;1.90;;
76955;SDS011;65894;53.206;-6.108;2022-12-18T13:26:44;7.22;;;1.92;;
76955;SDS011;65894;53.206;-6.108;2022-12-18T13:34:14;6.00;;;1.83;;
76955;SDS011;65894;53.206;-6.108;2022-12-18T13:36:42;5.82;;;1.50;;
76955;SDS011;65894;53.206;-6.108;2022-12-18T13:41:43;6.82;;;1.70;;
76955;SDS011;65894;53.206;-6.108;2022-12-18T13:46:49;5.32;;;1.48;;
76955;SDS011;65894;53.206;-6.108;2022-12-18T13:49:19;4.80;;;1.60;;
76955;SDS011;65894;53.206;-6.108;2022-12-18T13:54:54;5.35;;;1.40;;
76955;SDS011;65894;53.206;-6.108;2022-12-18T13:57:33;5.82;;;1.30;;
76955;SDS011;65894;53.206;-6.108;2022-12-18T14:02:47;8.57;;;1.85;;
76955;SDS011;65894;53.206;-6.108;2022-12-18T14:05:26;10.23;;;1.50;;
76955;SDS011;65894;53.206;-6.108;2022-12-18T14:08:01;4.55;;;1.50;;
76955;SDS011;65894;53.206;-6.108;2022-12-18T14:10:33;7.25;;;1.63;;
76955;SDS011;65894;53.206;-6.108;2022-12-18T14:13:05;6.30;;;1.50;;
76955;SDS011;65894;53.206;-6.108;2022-12-18T14:18:22;7.15;;;1.73;;
76955;SDS011;65894;53.206;-6.108;2022-12-18T14:20:50;7.55;;;1.40;;
76955;SDS011;65894;53.206;-6.108;2022-12-18T14:23:33;4.85;;;1.40;;
76955;SDS011;65894;53.206;-6.108;2022-12-18T14:26:00;3.17;;;1.15;;
76955;SDS011;65894;53.206;-6.108;2022-12-18T14:28:26;4.97;;;1.40;;
76955;SDS011;65894;53.206;-6.108;2022-12-18T14:30:52;5.18;;;1.60;;
76955;SDS011;65894;53.206;-6.108;2022-12-18T14:33:22;7.72;;;1.67;;
76955;SDS011;65894;53.206;-6.108;2022-12-18T14:36:00;5.75;;;1.50;;
76955;SDS011;65894;53.206;-6.108;2022-12-18T14:38:33;7.00;;;1.58;;
76955;SDS011;65894;53.206;-6.108;2022-12-18T14:41:04;6.78;;;1.50;;
76955;SDS011;65894;53.206;-6.108;2022-12-18T14:43:34;6.57;;;1.30;;
76955;SDS011;65894;53.206;-6.108;2022-12-18T14:46:02;6.28;;;1.40;;
76955;SDS011;65894;53.206;-6.108;2022-12-18T14:53:39;5.25;;;1.40;;
76955;SDS011;65894;53.206;-6.108;2022-12-18T14:56:13;4.97;;;1.20;;
76955;SDS011;65894;53.206;-6.108;2022-12-18T14:58:45;4.55;;;1.20;;
76955;SDS011;65894;53.206;-6.108;2022-12-18T15:01:19;4.68;;;1.40;;
76955;SDS011;65894;53.206;-6.108;2022-12-18T15:03:50;4.43;;;1.08;;
76955;SDS011;65894;53.206;-6.108;2022-12-18T15:06:27;4.78;;;1.35;;
76955;SDS011;65894;53.206;-6.108;2022-12-18T15:09:01;2.90;;;1.02;;
76955;SDS011;65894;53.206;-6.108;2022-12-18T15:11:46;4.55;;;1.15;;
76955;SDS011;65894;53.206;-6.108;2022-12-18T15:14:22;6.63;;;1.58;;
76955;SDS011;65894;53.206;-6.108;2022-12-18T15:17:04;4.88;;;1.30;;
76955;SDS011;65894;53.206;-6.108;2022-12-18T15:19:39;6.07;;;1.50;;
76955;SDS011;65894;53.206;-6.108;2022-12-18T15:22:20;5.28;;;1.30;;
76955;SDS011;65894;53.206;-6.108;2022-12-18T15:24:46;5.20;;;1.20;;
76955;SDS011;65894;53.206;-6.108;2022-12-18T15:27:26;3.97;;;1.10;;
76955;SDS011;65894;53.206;-6.108;2022-12-18T15:29:59;4.38;;;1.00;;
76955;SDS011;65894;53.206;-6.108;2022-12-18T15:32:34;3.72;;;0.90;;
76955;SDS011;65894;53.206;-6.108;2022-12-18T15:35:11;5.35;;;1.35;;
76955;SDS011;65894;53.206;-6.108;2022-12-18T15:37:40;6.35;;;1.58;;
76955;SDS011;65894;53.206;-6.108;2022-12-18T15:40:06;5.57;;;1.80;;
76955;SDS011;65894;53.206;-6.108;2022-12-18T15:42:33;6.97;;;1.27;;
76955;SDS011;65894;53.206;-6.108;2022-12-18T15:45:17;5.38;;;1.27;;
76955;SDS011;65894;53.206;-6.108;2022-12-18T15:47:43;5.68;;;1.40;;
76955;SDS011;65894;53.206;-6.108;2022-12-18T15:50:08;7.10;;;1.30;;
76955;SDS011;65894;53.206;-6.108;2022-12-18T15:52:41;7.18;;;1.50;;
76955;SDS011;65894;53.206;-6.108;2022-12-18T15:55:13;6.35;;;1.50;;
76955;SDS011;65894;53.206;-6.108;2022-12-18T15:57:58;5.72;;;1.35;;
76955;SDS011;65894;53.206;-6.108;2022-12-18T16:00:24;5.32;;;1.30;;
76955;SDS011;65894;53.206;-6.108;2022-12-18T16:02:50;5.35;;;1.30;;
76955;SDS011;65894;53.206;-6.108;2022-12-18T16:05:16;7.28;;;1.38;;
76955;SDS011;65894;53.206;-6.108;2022-12-18T16:07:44;7.57;;;1.27;;
76955;SDS011;65894;53.206;-6.108;2022-12-18T16:10:10;4.72;;;1.20;;
76955;SDS011;65894;53.206;-6.108;2022-12-18T16:12:36;4.75;;;1.35;;
76955;SDS011;65894;53.206;-6.108;2022-12-18T16:15:03;4.88;;;1.30;;
76955;SDS011;65894;53.206;-6.108;2022-12-18T16:17:30;6.13;;;1.20;;
76955;SDS011;65894;53.206;-6.108;2022-12-18T16:19:56;6.13;;;1.00;;
76955;SDS011;65894;53.206;-6.108;2022-12-18T16:22:25;8.05;;;1.75;;
76955;SDS011;65894;53.206;-6.108;2022-12-18T16:24:53;4.07;;;1.10;;
76955;SDS011;65894;53.206;-6.108;2022-12-18T16:27:20;4.93;;;1.30;;
76955;SDS011;65894;53.206;-6.108;2022-12-18T16:29:46;4.93;;;1.20;;
76955;SDS011;65894;53.206;-6.108;2022-12-18T16:32:13;5.05;;;1.17;;
76955;SDS011;65894;53.206;-6.108;2022-12-18T16:34:40;4.35;;;1.10;;
76955;SDS011;65894;53.206;-6.108;2022-12-18T16:37:07;3.70;;;1.00;;
76955;SDS011;65894;53.206;-6.108;2022-12-18T16:39:34;4.32;;;1.00;;
76955;SDS011;65894;53.206;-6.108;2022-12-18T16:42:02;5.38;;;1.30;;
76955;SDS011;65894;53.206;-6.108;2022-12-18T16:44:29;3.38;;;1.00;;
76955;SDS011;65894;53.206;-6.108;2022-12-18T16:46:54;8.35;;;1.92;;
76955;SDS011;65894;53.206;-6.108;2022-12-18T16:49:26;7.82;;;1.40;;
76955;SDS011;65894;53.206;-6.108;2022-12-18T16:51:53;4.93;;;1.10;;
76955;SDS011;65894;53.206;-6.108;2022-12-18T16:54:19;4.03;;;1.20;;
76955;SDS011;65894;53.206;-6.108;2022-12-18T16:56:44;4.53;;;1.23;;
76955;SDS011;65894;53.206;-6.108;2022-12-18T16:59:11;4.93;;;1.13;;
76955;SDS011;65894;53.206;-6.108;2022-12-18T17:01:37;4.63;;;1.25;;
76955;SDS011;65894;53.206;-6.108;2022-12-18T17:04:04;4.82;;;1.40;;
76955;SDS011;65894;53.206;-6.108;2022-12-18T17:06:32;3.97;;;0.95;;
76955;SDS011;65894;53.206;-6.108;2022-12-18T17:09:00;5.80;;;1.02;;
76955;SDS011;65894;53.206;-6.108;2022-12-18T17:11:29;5.82;;;1.13;;
76955;SDS011;65894;53.206;-6.108;2022-12-18T17:13:55;5.30;;;1.25;;